createdAt,value
2022-11-30T00:01:11.825Z,14.47
2022-11-30T00:03:40.131Z,14.80
2022-11-30T00:06:08.888Z,15.50
2022-11-30T00:08:38.682Z,14.20
2022-11-30T00:11:10.314Z,14.77
2022-11-30T00:13:38.545Z,15.50
2022-11-30T00:16:07.336Z,16.27
2022-11-30T00:18:35.590Z,15.20
2022-11-30T00:21:04.595Z,15.33
2022-11-30T00:23:36.353Z,14.40
2022-11-30T00:26:06.463Z,14.07
2022-11-30T00:28:35.402Z,14.70
2022-11-30T00:31:04.615Z,14.53
2022-11-30T00:33:34.455Z,14.77
2022-11-30T00:36:03.563Z,14.40
2022-11-30T00:38:33.219Z,15.07
2022-11-30T00:41:01.787Z,13.60
2022-11-30T00:43:31.501Z,14.63
2022-11-30T00:46:00.096Z,14.73
2022-11-30T00:48:28.619Z,14.07
2022-11-30T00:50:56.907Z,14.07
2022-11-30T00:53:25.246Z,13.87
2022-11-30T00:55:53.490Z,14.57
2022-11-30T00:58:21.783Z,15.33
2022-11-30T01:00:51.597Z,14.97
2022-11-30T01:03:19.814Z,14.93
2022-11-30T01:05:48.131Z,15.50
2022-11-30T01:08:16.446Z,14.93
2022-11-30T01:10:45.205Z,14.80
2022-11-30T01:13:13.907Z,14.57
2022-11-30T01:15:43.730Z,15.37
2022-11-30T01:18:13.614Z,15.10
2022-11-30T01:20:43.404Z,15.93
2022-11-30T01:23:12.234Z,15.93
2022-11-30T01:25:40.532Z,16.50
2022-11-30T01:28:08.771Z,16.13
2022-11-30T01:30:37.146Z,16.83
2022-11-30T01:33:06.416Z,16.60
2022-11-30T01:35:36.126Z,16.23
2022-11-30T01:38:04.386Z,17.43
2022-11-30T01:40:32.653Z,18.00
2022-11-30T01:43:00.957Z,17.00
2022-11-30T01:45:29.643Z,17.83
2022-11-30T01:47:58.617Z,17.20
2022-11-30T01:50:29.715Z,18.10
2022-11-30T01:52:59.727Z,17.27
2022-11-30T01:55:29.136Z,18.73
2022-11-30T01:57:59.054Z,18.67
2022-11-30T02:00:27.298Z,18.43
2022-11-30T02:02:58.894Z,18.57
2022-11-30T02:05:27.837Z,17.40
2022-11-30T02:07:56.535Z,18.17
2022-11-30T02:10:28.570Z,18.17
2022-11-30T02:13:14.440Z,18.23
2022-11-30T02:15:48.842Z,18.10
2022-11-30T02:18:21.369Z,17.57
2022-11-30T02:20:55.216Z,18.23
2022-11-30T02:23:42.854Z,17.73
2022-11-30T02:26:20.212Z,18.17
2022-11-30T02:29:00.017Z,18.17
2022-11-30T02:31:31.204Z,17.97
2022-11-30T02:34:00.270Z,17.80
2022-11-30T02:36:28.846Z,18.57
2022-11-30T02:38:57.978Z,16.93
2022-11-30T02:41:26.233Z,17.57
2022-11-30T02:43:55.907Z,18.17
2022-11-30T02:46:29.385Z,18.27
2022-11-30T02:49:00.586Z,18.17
2022-11-30T02:51:30.119Z,17.77
2022-11-30T02:53:58.439Z,18.90
2022-11-30T02:56:26.947Z,18.90
2022-11-30T02:58:56.691Z,18.07
2022-11-30T03:01:25.268Z,17.47
2022-11-30T03:03:53.631Z,18.23
2022-11-30T03:06:21.876Z,18.17
2022-11-30T03:08:50.079Z,18.13
2022-11-30T03:11:18.343Z,17.43
2022-11-30T03:13:46.634Z,17.47
2022-11-30T03:16:16.374Z,16.73
2022-11-30T03:18:44.977Z,17.60
2022-11-30T03:21:14.531Z,17.03
2022-11-30T03:23:42.905Z,17.80
2022-11-30T03:26:11.196Z,16.80
2022-11-30T03:28:39.670Z,17.53
2022-11-30T03:31:08.050Z,16.97
2022-11-30T03:33:37.727Z,17.10
2022-11-30T03:36:06.848Z,17.07
2022-11-30T03:38:35.638Z,18.20
2022-11-30T03:41:04.435Z,17.50
2022-11-30T03:43:32.908Z,16.97
2022-11-30T03:46:01.259Z,17.77
2022-11-30T03:48:30.645Z,18.43
2022-11-30T03:51:00.620Z,18.80
2022-11-30T03:53:28.972Z,17.83
2022-11-30T03:55:58.069Z,18.97
2022-11-30T03:58:26.738Z,17.60
2022-11-30T04:01:00.267Z,17.93
2022-11-30T04:03:28.590Z,18.17
2022-11-30T04:05:57.039Z,17.83
2022-11-30T04:08:26.808Z,18.00
2022-11-30T04:10:55.669Z,18.60
2022-11-30T04:13:24.375Z,21.63
2022-11-30T04:15:53.530Z,21.17
2022-11-30T04:18:22.699Z,20.47
2022-11-30T04:20:52.252Z,20.47
2022-11-30T04:23:20.970Z,21.33
2022-11-30T04:25:50.677Z,21.20
2022-11-30T04:28:19.471Z,20.63
2022-11-30T04:30:47.927Z,21.10
2022-11-30T04:33:16.890Z,21.07
2022-11-30T04:35:46.154Z,21.10
2022-11-30T04:38:14.501Z,20.10
2022-11-30T04:40:43.092Z,19.03
2022-11-30T04:43:13.285Z,19.27
2022-11-30T04:45:41.715Z,20.33
2022-11-30T04:48:09.970Z,20.73
2022-11-30T04:50:39.399Z,20.17
2022-11-30T04:53:07.889Z,20.20
2022-11-30T04:55:36.320Z,20.40
2022-11-30T04:58:04.753Z,20.23
2022-11-30T05:00:34.834Z,20.47
2022-11-30T05:03:03.328Z,19.93
2022-11-30T05:05:31.627Z,21.10
2022-11-30T05:08:00.893Z,20.53
2022-11-30T05:10:29.956Z,21.53
2022-11-30T05:12:58.933Z,20.60
2022-11-30T05:15:27.282Z,20.00
2022-11-30T05:17:59.752Z,21.20
2022-11-30T05:20:28.353Z,20.33
2022-11-30T05:22:56.800Z,20.77
2022-11-30T05:25:25.100Z,23.23
2022-11-30T05:27:53.430Z,21.33
2022-11-30T05:30:21.904Z,21.20
2022-11-30T05:32:50.162Z,20.50
2022-11-30T05:35:19.761Z,21.37
2022-11-30T05:37:48.011Z,20.97
2022-11-30T05:40:16.532Z,20.40
2022-11-30T05:42:44.909Z,21.23
2022-11-30T05:45:13.324Z,19.63
2022-11-30T05:47:41.566Z,19.67
2022-11-30T05:50:10.171Z,20.43
2022-11-30T05:52:39.796Z,19.80
2022-11-30T05:55:08.331Z,20.03
2022-11-30T05:57:37.760Z,20.03
2022-11-30T06:00:06.702Z,19.03
2022-11-30T06:02:35.321Z,19.97
2022-11-30T06:05:03.801Z,19.03
2022-11-30T06:07:32.091Z,18.97
2022-11-30T06:10:02.117Z,18.60
2022-11-30T06:12:30.641Z,17.63
2022-11-30T06:14:58.873Z,17.37
2022-11-30T06:17:27.144Z,18.00
2022-11-30T06:19:55.442Z,17.33
2022-11-30T06:22:23.808Z,16.97
2022-11-30T06:24:52.119Z,17.10
2022-11-30T06:27:21.818Z,15.97
2022-11-30T06:29:50.830Z,16.43
2022-11-30T06:32:19.086Z,16.23
2022-11-30T06:34:47.577Z,17.03
2022-11-30T06:37:16.225Z,16.77
2022-11-30T06:40:05.545Z,16.53
2022-11-30T06:42:34.443Z,17.43
2022-11-30T06:45:03.029Z,16.03
2022-11-30T06:47:31.404Z,15.67
2022-11-30T06:49:59.716Z,15.43
2022-11-30T06:52:27.995Z,15.37
2022-11-30T06:54:56.327Z,15.67
2022-11-30T06:57:28.237Z,16.63
2022-11-30T06:59:58.163Z,15.47
2022-11-30T07:02:26.442Z,16.03
2022-11-30T07:04:54.755Z,16.70
2022-11-30T07:07:23.235Z,15.80
2022-11-30T07:09:52.162Z,16.33
2022-11-30T07:12:20.467Z,16.93
2022-11-30T07:14:52.287Z,17.10
2022-11-30T07:17:22.014Z,16.27
2022-11-30T07:19:50.494Z,17.10
2022-11-30T07:22:18.969Z,16.03
2022-11-30T07:25:04.752Z,16.07
2022-11-30T07:27:33.120Z,15.93
2022-11-30T07:30:01.329Z,16.60
2022-11-30T07:32:30.954Z,13.97
2022-11-30T07:34:59.284Z,13.83
2022-11-30T07:37:27.546Z,13.93
2022-11-30T07:39:56.059Z,14.80
2022-11-30T07:42:24.306Z,14.20
2022-11-30T07:44:58.338Z,13.87
2022-11-30T07:47:27.139Z,14.17
2022-11-30T07:49:57.225Z,14.43
2022-11-30T07:52:25.561Z,14.30
2022-11-30T07:54:53.935Z,13.90
2022-11-30T07:57:22.218Z,14.60
2022-11-30T07:59:50.746Z,14.40
2022-11-30T08:02:19.214Z,14.87
2022-11-30T08:04:48.173Z,15.17
2022-11-30T08:07:18.211Z,15.50
2022-11-30T08:09:46.489Z,16.03
2022-11-30T08:12:14.743Z,15.57
2022-11-30T08:15:17.437Z,15.97
2022-11-30T08:17:31.444Z,14.40
2022-11-30T08:19:59.815Z,15.17
2022-11-30T08:22:29.587Z,16.07
2022-11-30T08:24:57.822Z,16.00
2022-11-30T08:27:26.166Z,15.57
2022-11-30T08:29:54.430Z,14.73
2022-11-30T08:32:22.708Z,15.53
2022-11-30T08:34:51.256Z,14.67
2022-11-30T08:37:19.578Z,15.07
2022-11-30T08:39:49.611Z,14.67
2022-11-30T08:42:18.021Z,14.77
2022-11-30T08:44:46.249Z,14.43
2022-11-30T08:47:14.577Z,14.17
2022-11-30T08:49:42.816Z,14.40
2022-11-30T08:52:18.953Z,15.40
2022-11-30T08:54:49.645Z,14.47
2022-11-30T08:57:18.461Z,15.60
2022-11-30T08:59:46.748Z,14.47
2022-11-30T09:02:17.609Z,14.77
2022-11-30T09:04:47.385Z,15.40
2022-11-30T09:07:15.631Z,15.30
2022-11-30T09:09:44.413Z,15.00
2022-11-30T09:12:14.129Z,15.63
2022-11-30T09:14:42.642Z,14.73
2022-11-30T09:17:11.028Z,15.50
2022-11-30T09:19:39.302Z,15.53
2022-11-30T09:22:07.564Z,15.53
2022-11-30T09:24:38.219Z,14.67
2022-11-30T09:27:06.525Z,14.70
2022-11-30T09:29:37.473Z,15.10
2022-11-30T09:32:05.852Z,15.87
2022-11-30T09:34:34.146Z,15.83
2022-11-30T09:37:02.429Z,15.60
2022-11-30T09:39:30.771Z,16.07
2022-11-30T09:42:20.006Z,16.27
2022-11-30T09:44:55.228Z,17.03
2022-11-30T09:47:34.015Z,16.10
2022-11-30T09:50:05.359Z,17.50
2022-11-30T09:52:36.545Z,16.77
2022-11-30T09:55:09.177Z,16.97
2022-11-30T09:57:43.384Z,18.80
2022-11-30T10:00:15.469Z,18.97
2022-11-30T10:02:44.740Z,17.37
2022-11-30T10:05:14.468Z,16.70
2022-11-30T10:07:50.532Z,16.43
2022-11-30T10:10:32.261Z,17.17
2022-11-30T10:13:05.992Z,17.63
2022-11-30T10:15:40.367Z,17.40
2022-11-30T10:18:16.015Z,18.07
2022-11-30T10:20:49.081Z,17.10
2022-11-30T10:23:25.376Z,16.77
2022-11-30T10:25:57.259Z,17.40
2022-11-30T10:28:46.930Z,16.57
2022-11-30T10:31:18.113Z,17.43
2022-11-30T10:33:48.231Z,15.70
2022-11-30T10:36:19.163Z,16.27
2022-11-30T10:38:50.266Z,16.40
2022-11-30T10:41:20.013Z,14.87
2022-11-30T10:43:50.699Z,14.97
2022-11-30T10:46:24.291Z,15.60
2022-11-30T10:48:56.671Z,15.33
2022-11-30T10:51:25.333Z,15.07
2022-11-30T10:53:53.594Z,14.83
2022-11-30T10:56:21.979Z,14.47
2022-11-30T10:58:55.493Z,15.20
2022-11-30T11:01:36.249Z,14.00
2022-11-30T11:04:12.431Z,13.80
2022-11-30T11:06:43.293Z,14.53
2022-11-30T11:09:30.439Z,13.80
2022-11-30T11:11:59.976Z,14.03
2022-11-30T11:14:32.372Z,14.27
2022-11-30T11:17:07.416Z,13.87
2022-11-30T11:19:37.637Z,13.17
2022-11-30T11:22:07.266Z,13.50
2022-11-30T11:24:36.051Z,13.53
2022-11-30T11:27:04.830Z,14.23
2022-11-30T11:29:34.531Z,14.73
2022-11-30T11:32:24.874Z,15.53
2022-11-30T11:34:54.903Z,14.33
2022-11-30T11:37:26.184Z,13.73
2022-11-30T11:40:01.741Z,14.73
2022-11-30T11:42:31.986Z,13.47
2022-11-30T11:45:02.025Z,15.53
2022-11-30T11:47:40.530Z,15.83
2022-11-30T11:50:58.225Z,15.67
2022-11-30T11:53:23.041Z,15.37
2022-11-30T11:55:57.398Z,16.37
2022-11-30T11:58:38.887Z,15.50
2022-11-30T12:01:38.508Z,15.03
2022-11-30T12:04:02.998Z,15.47
2022-11-30T12:06:34.296Z,15.60
2022-11-30T12:09:05.248Z,17.20
2022-11-30T12:11:40.657Z,16.97
2022-11-30T12:14:12.429Z,19.83
2022-11-30T12:16:44.911Z,17.93
2022-11-30T12:19:15.754Z,17.20
2022-11-30T12:21:53.258Z,17.03
2022-11-30T12:24:36.448Z,17.00
2022-11-30T12:27:09.326Z,16.53
2022-11-30T12:29:43.047Z,16.37
2022-11-30T12:32:18.613Z,16.70
2022-11-30T12:34:50.306Z,16.20
2022-11-30T12:37:23.982Z,17.17
2022-11-30T12:39:55.880Z,17.13
2022-11-30T12:42:28.057Z,15.20
2022-11-30T12:44:59.705Z,16.70
2022-11-30T12:47:36.986Z,14.97
2022-11-30T12:50:18.342Z,15.90
2022-11-30T12:52:50.491Z,14.53
2022-11-30T12:55:23.284Z,14.60
2022-11-30T12:57:56.313Z,16.03
2022-11-30T13:00:25.395Z,15.03
2022-11-30T13:03:02.656Z,13.53
2022-11-30T13:05:33.344Z,14.17
2022-11-30T13:08:06.455Z,14.50
2022-11-30T13:10:36.950Z,13.90
2022-11-30T13:13:06.483Z,13.97
2022-11-30T13:15:35.618Z,13.57
2022-11-30T13:18:04.563Z,15.10
2022-11-30T13:20:36.846Z,15.37
2022-11-30T13:23:08.312Z,14.93
2022-11-30T13:26:09.978Z,15.43
2022-11-30T13:28:33.558Z,16.97
2022-11-30T13:31:06.223Z,16.90
2022-11-30T13:33:48.167Z,17.30
2022-11-30T13:36:31.329Z,15.57
2022-11-30T13:39:20.670Z,16.20
2022-11-30T13:41:50.005Z,15.53
2022-11-30T13:44:24.582Z,16.23
2022-11-30T13:46:53.654Z,15.17
2022-11-30T13:49:23.273Z,15.47
2022-11-30T13:52:13.509Z,16.17
2022-11-30T13:54:42.734Z,16.03
2022-11-30T13:57:17.875Z,16.03
2022-11-30T13:59:51.499Z,17.37
2022-11-30T14:02:42.601Z,18.20
2022-11-30T14:05:21.866Z,17.60
2022-11-30T14:08:11.053Z,18.07
2022-11-30T14:10:42.426Z,18.83
2022-11-30T14:13:31.005Z,18.57
2022-11-30T14:16:01.158Z,18.23
2022-11-30T14:18:33.437Z,17.40
2022-11-30T14:21:03.633Z,17.93
2022-11-30T14:23:34.028Z,17.43
2022-11-30T14:26:10.439Z,18.20
2022-11-30T14:28:41.803Z,16.70
2022-11-30T14:31:11.741Z,16.50
2022-11-30T14:33:43.596Z,17.63
2022-11-30T14:36:12.707Z,16.37
2022-11-30T14:38:42.327Z,17.43
2022-11-30T14:41:21.939Z,16.90
2022-11-30T14:44:00.455Z,16.87
2022-11-30T14:46:28.932Z,17.80
2022-11-30T14:49:07.282Z,17.33
2022-11-30T14:51:35.670Z,18.23
2022-11-30T14:54:08.007Z,17.87
2022-11-30T14:56:41.181Z,17.97
2022-11-30T14:59:13.151Z,17.83
2022-11-30T15:01:41.539Z,18.13
2022-11-30T15:04:13.138Z,18.30
2022-11-30T15:06:42.571Z,18.83
2022-11-30T15:09:19.808Z,17.80
2022-11-30T15:11:50.494Z,18.40
2022-11-30T15:14:18.949Z,16.57
2022-11-30T15:16:50.839Z,16.53
2022-11-30T15:19:23.745Z,16.83
2022-11-30T15:21:52.601Z,16.87
2022-11-30T15:24:21.297Z,16.00
2022-11-30T15:26:54.455Z,16.70
2022-11-30T15:29:25.302Z,15.30
2022-11-30T15:31:55.359Z,15.30
2022-11-30T15:34:27.824Z,14.57
2022-11-30T15:36:56.639Z,14.90
2022-11-30T15:39:26.302Z,14.73
2022-11-30T15:41:56.656Z,15.73
2022-11-30T15:44:27.108Z,15.53
2022-11-30T15:46:59.709Z,14.77
2022-11-30T15:49:29.371Z,14.33
2022-11-30T15:52:04.581Z,14.53
2022-11-30T15:54:46.174Z,14.63
2022-11-30T15:57:16.175Z,15.13
2022-11-30T15:59:45.587Z,15.10
2022-11-30T16:02:27.496Z,16.50
2022-11-30T16:05:14.183Z,16.53
2022-11-30T16:07:50.227Z,16.40
2022-11-30T16:10:20.612Z,16.97
2022-11-30T16:12:50.750Z,18.03
2022-11-30T16:15:19.914Z,18.20
2022-11-30T16:17:48.890Z,19.07
2022-11-30T16:20:17.416Z,19.03
2022-11-30T16:22:46.428Z,21.93
2022-11-30T16:25:15.572Z,38.97
2022-11-30T16:27:44.080Z,36.67
2022-11-30T16:30:15.900Z,28.37
2022-11-30T16:32:44.319Z,24.83
2022-11-30T16:35:18.901Z,21.87
2022-11-30T16:37:47.394Z,24.03
2022-11-30T16:40:16.298Z,25.13
2022-11-30T16:42:44.651Z,24.73
2022-11-30T16:45:17.443Z,25.30
2022-11-30T16:47:45.751Z,26.93
2022-11-30T16:50:14.711Z,27.33
2022-11-30T16:52:43.537Z,27.20
2022-11-30T16:55:14.293Z,25.70
2022-11-30T16:57:42.608Z,26.23
2022-11-30T17:00:12.545Z,25.87
2022-11-30T17:02:44.901Z,28.00
2022-11-30T17:05:14.405Z,26.77
2022-11-30T17:07:43.980Z,26.23
2022-11-30T17:10:13.722Z,26.67
2022-11-30T17:12:46.052Z,27.43
2022-11-30T17:15:16.767Z,27.77
2022-11-30T17:17:59.705Z,27.87
2022-11-30T17:20:51.452Z,26.97
2022-11-30T17:23:20.047Z,25.67
2022-11-30T17:25:51.904Z,27.37
2022-11-30T17:28:20.372Z,28.17
2022-11-30T17:30:49.005Z,29.30
2022-11-30T17:33:19.342Z,29.33
2022-11-30T17:35:47.818Z,29.57
2022-11-30T17:38:16.186Z,28.07
2022-11-30T17:40:45.118Z,28.03
2022-11-30T17:43:13.909Z,28.57
2022-11-30T17:45:42.628Z,28.27
2022-11-30T17:48:11.358Z,27.23
2022-11-30T17:50:41.498Z,26.73
2022-11-30T17:53:12.993Z,28.10
2022-11-30T17:55:44.696Z,28.50
2022-11-30T17:58:15.050Z,28.70
2022-11-30T18:00:43.441Z,29.57
2022-11-30T18:03:12.011Z,30.87
2022-11-30T18:05:41.929Z,27.87
2022-11-30T18:08:10.927Z,29.50
2022-11-30T18:10:41.089Z,30.47
2022-11-30T18:13:09.677Z,30.47
2022-11-30T18:15:38.179Z,31.10
2022-11-30T18:18:06.681Z,31.50
2022-11-30T18:20:35.370Z,31.70
2022-11-30T18:23:07.071Z,30.33
2022-11-30T18:25:38.993Z,30.80
2022-11-30T18:28:09.978Z,31.27
2022-11-30T18:30:38.989Z,29.83
2022-11-30T18:33:08.530Z,30.33
2022-11-30T18:35:37.114Z,30.80
2022-11-30T18:38:07.006Z,31.73
2022-11-30T18:40:35.440Z,32.30
2022-11-30T18:43:03.812Z,28.23
2022-11-30T18:45:34.003Z,28.80
2022-11-30T18:48:02.785Z,28.20
2022-11-30T18:50:31.409Z,28.10
2022-11-30T18:52:59.932Z,28.63
2022-11-30T18:55:30.295Z,28.83
2022-11-30T18:58:01.076Z,29.00
2022-11-30T19:00:32.757Z,27.60
2022-11-30T19:03:07.373Z,28.07
2022-11-30T19:05:39.898Z,26.83
2022-11-30T19:08:11.559Z,28.23
2022-11-30T19:10:41.958Z,27.90
2022-11-30T19:13:12.697Z,27.13
2022-11-30T19:15:46.697Z,26.53
2022-11-30T19:18:23.084Z,26.47
2022-11-30T19:21:12.228Z,26.57
2022-11-30T19:23:41.315Z,25.27
2022-11-30T19:26:11.247Z,26.33
2022-11-30T19:28:40.162Z,26.10
2022-11-30T19:31:09.367Z,26.53
2022-11-30T19:33:38.440Z,27.67
2022-11-30T19:36:08.308Z,26.57
2022-11-30T19:38:37.046Z,26.67
2022-11-30T19:41:08.914Z,27.50
2022-11-30T19:43:39.276Z,26.73
2022-11-30T19:46:20.161Z,26.03
2022-11-30T19:48:48.580Z,28.67
2022-11-30T19:51:19.058Z,29.67
2022-11-30T19:53:48.137Z,29.13
2022-11-30T19:56:17.593Z,30.20
2022-11-30T19:58:47.621Z,29.37
2022-11-30T20:01:16.386Z,26.83
2022-11-30T20:03:47.149Z,27.97
2022-11-30T20:06:15.613Z,25.77
2022-11-30T20:08:44.107Z,26.30
2022-11-30T20:11:13.383Z,26.50
2022-11-30T20:13:42.024Z,26.50
2022-11-30T20:16:13.212Z,27.47
2022-11-30T20:18:46.268Z,26.20
2022-11-30T20:21:16.256Z,27.00
2022-11-30T20:23:47.091Z,25.77
2022-11-30T20:26:18.385Z,26.53
2022-11-30T20:28:47.135Z,26.93
2022-11-30T20:31:19.887Z,26.90
2022-11-30T20:33:48.813Z,27.43
2022-11-30T20:36:17.942Z,26.70
2022-11-30T20:38:46.705Z,27.33
2022-11-30T20:41:15.979Z,27.80
2022-11-30T20:43:44.848Z,27.07
2022-11-30T20:46:19.557Z,27.43
2022-11-30T20:48:48.576Z,28.50
2022-11-30T20:51:33.993Z,28.00
2022-11-30T20:54:03.944Z,27.97
2022-11-30T20:56:32.515Z,26.37
2022-11-30T20:59:02.910Z,28.30
2022-11-30T21:01:33.268Z,27.87
2022-11-30T21:04:01.993Z,27.00
2022-11-30T21:06:33.796Z,27.77
2022-11-30T21:09:02.657Z,26.33
2022-11-30T21:11:31.543Z,25.83
2022-11-30T21:14:02.955Z,26.63
2022-11-30T21:16:33.249Z,25.90
2022-11-30T21:19:02.191Z,27.50
2022-11-30T21:21:34.843Z,27.97
2022-11-30T21:24:04.723Z,27.70
2022-11-30T21:26:34.544Z,28.03
2022-11-30T21:29:04.449Z,28.10
2022-11-30T21:31:35.283Z,26.87
2022-11-30T21:34:15.363Z,26.27
2022-11-30T21:36:52.327Z,26.80
2022-11-30T21:39:21.542Z,27.37
2022-11-30T21:41:51.189Z,27.23
2022-11-30T21:44:22.836Z,27.03
2022-11-30T21:46:53.251Z,29.87
2022-11-30T21:49:21.748Z,29.97
2022-11-30T21:51:50.390Z,28.03
2022-11-30T21:54:20.451Z,27.83
2022-11-30T21:56:52.473Z,27.17
2022-11-30T21:59:21.762Z,28.00
2022-11-30T22:01:50.178Z,25.37
2022-11-30T22:04:26.241Z,26.40
2022-11-30T22:06:56.113Z,25.30
2022-11-30T22:09:26.808Z,25.00
2022-11-30T22:11:56.592Z,24.47
2022-11-30T22:14:25.622Z,24.17
2022-11-30T22:16:55.500Z,22.00
2022-11-30T22:19:25.571Z,22.67
2022-11-30T22:21:54.051Z,23.83
2022-11-30T22:24:22.582Z,23.47
2022-11-30T22:26:51.006Z,22.33
2022-11-30T22:29:20.593Z,21.80
2022-11-30T22:31:50.299Z,22.70
2022-11-30T22:34:18.822Z,22.43
2022-11-30T22:36:49.387Z,20.53
2022-11-30T22:39:18.663Z,21.77
2022-11-30T22:41:53.054Z,21.83
2022-11-30T22:44:24.174Z,21.97
2022-11-30T22:47:00.399Z,21.60
2022-11-30T22:49:29.140Z,20.07
2022-11-30T22:52:01.671Z,21.13
2022-11-30T22:54:30.224Z,21.33
2022-11-30T22:56:59.536Z,20.90
2022-11-30T22:59:28.680Z,19.93
2022-11-30T23:01:57.132Z,20.30
2022-11-30T23:04:25.821Z,20.43
2022-11-30T23:06:54.691Z,19.63
2022-11-30T23:09:25.521Z,18.57
2022-11-30T23:11:53.857Z,17.60
2022-11-30T23:14:22.162Z,18.13
2022-11-30T23:16:50.343Z,17.47
2022-11-30T23:19:18.880Z,17.83
2022-11-30T23:21:47.244Z,18.20
2022-11-30T23:24:16.961Z,17.63
2022-11-30T23:26:46.623Z,16.43
2022-11-30T23:29:15.677Z,16.60
2022-11-30T23:31:44.975Z,16.00
2022-11-30T23:34:14.473Z,16.27
2022-11-30T23:36:42.781Z,16.57
2022-11-30T23:39:12.112Z,15.57
2022-11-30T23:41:40.762Z,16.37
2022-11-30T23:44:10.964Z,15.97
2022-11-30T23:46:39.440Z,17.20
2022-11-30T23:49:08.100Z,16.70
2022-11-30T23:51:36.461Z,16.73
2022-11-30T23:54:05.157Z,17.67
2022-11-30T23:56:33.430Z,18.13
2022-11-30T23:59:01.616Z,18.90
